Time;durP1;ratioP1;P1;durP2;ratioP2;P2;SDS_P1;SDS_P2;PMS_P1;PMS_P2;Temp;Humidity;BMP_temperature;BMP_pressure;BME280_temperature;BME280_humidity;BME280_pressure;Samples;Min_cycle;Max_cycle;Signal;HPM_P1;HPM_P2
2021/09/28 00:02:28;;;;;;;16.90;10.30;;;;;;;12.61;82.51;96946.54;115541;1197;26437;-91
2021/09/28 00:04:57;;;;;;;;;;;;;;;12.51;82.68;96943.40;115612;1197;28326;-90
2021/09/28 00:07:27;;;;;;;19.10;11.90;;;;;;;12.40;82.84;96943.45;115603;1196;27801;-90
2021/09/28 00:09:58;;;;;;;22.00;12.60;;;;;;;12.36;82.93;96941.94;115548;1196;29227;-90
2021/09/28 00:12:29;;;;;;;19.20;12.30;;;;;;;12.37;83.31;96942.04;115570;1197;27929;-91
2021/09/28 00:14:58;;;;;;;;;;;;;;;12.45;83.67;96941.29;115591;1197;30178;-90
2021/09/28 00:17:28;;;;;;;21.70;11.30;;;;;;;12.50;83.83;96944.58;115552;1197;26293;-91
2021/09/28 00:19:59;;;;;;;14.30;11.40;;;;;;;12.57;83.79;96941.64;115606;1196;27293;-91
2021/09/28 00:22:30;;;;;;;15.80;11.00;;;;;;;12.59;83.87;96941.88;115611;1182;25831;-90
2021/09/28 00:24:59;;;;;;;;;;;;;;;12.66;83.97;96937.49;115639;1196;31386;-90
2021/09/28 00:27:30;;;;;;;15.80;10.30;;;;;;;12.65;83.86;96941.33;115628;1196;30025;-91
2021/09/28 00:30:01;;;;;;;14.10;10.30;;;;;;;12.73;84.16;96937.77;115627;1196;27144;-90
2021/09/28 00:32:32;;;;;;;12.80;10.00;;;;;;;12.77;83.97;96941.46;115671;1196;28119;-91
2021/09/28 00:35:01;;;;;;;;;;;;;;;12.67;83.75;96934.98;115666;1196;28484;-90
2021/09/28 00:37:32;;;;;;;15.00;9.70;;;;;;;12.68;84.11;96935.83;115599;1190;29152;-90
2021/09/28 00:40:02;;;;;;;14.00;9.50;;;;;;;12.78;84.40;96934.58;115566;1196;30719;-90
2021/09/28 00:42:33;;;;;;;15.60;10.50;;;;;;;12.89;84.46;96932.98;115481;1197;34121;-91
2021/09/28 00:45:07;;;;;;;14.10;10.10;;;;;;;12.96;84.38;96931.40;115604;1174;29304;-91
2021/09/28 00:47:38;;;;;;;16.20;10.40;;;;;;;13.01;84.29;96935.48;115584;1196;32807;-91
2021/09/28 00:50:10;;;;;;;14.30;9.90;;;;;;;13.06;84.21;96938.77;115646;1196;33543;-90
2021/09/28 00:52:41;;;;;;;17.40;11.20;;;;;;;13.12;84.35;96937.59;115708;1196;29236;-90
2021/09/28 00:55:15;;;;;;;22.40;13.10;;;;;;;13.17;84.30;96939.44;115609;1190;27902;-90
2021/09/28 00:57:46;;;;;;;16.50;11.00;;;;;;;13.17;84.14;96940.77;115661;1190;35377;-90
2021/09/28 01:00:18;;;;;;;22.10;12.90;;;;;;;13.05;83.93;96940.54;115625;1196;39041;-90
2021/09/28 01:02:49;;;;;;;20.40;11.90;;;;;;;13.02;84.46;96941.55;115568;1197;31588;-89
2021/09/28 01:05:19;;;;;;;18.70;12.40;;;;;;;12.93;84.39;96938.84;115588;1196;38040;-90
2021/09/28 01:07:50;;;;;;;23.10;13.50;;;;;;;12.72;84.34;96940.04;115575;1196;27957;-90
2021/09/28 01:10:21;;;;;;;20.70;13.70;;;;;;;12.62;84.93;96936.09;115666;1196;28628;-90
2021/09/28 01:12:52;;;;;;;23.20;12.80;;;;;;;12.59;85.21;96938.37;115662;1196;30191;-91
2021/09/28 01:15:23;;;;;;;20.80;12.60;;;;;;;12.50;85.31;96940.48;115631;1196;26775;-90
2021/09/28 01:17:54;;;;;;;21.90;13.80;;;;;;;12.43;85.58;96943.00;115542;1196;24821;-90
2021/09/28 01:20:25;;;;;;;21.00;12.60;;;;;;;12.41;85.97;96944.57;115599;1190;30266;-91
2021/09/28 01:22:56;;;;;;;24.10;14.60;;;;;;;12.48;86.39;96947.79;115580;1196;27889;-90
2021/09/28 01:25:26;;;;;;;18.40;12.50;;;;;;;12.56;86.45;96948.40;115555;1193;27301;-91
2021/09/28 01:27:57;;;;;;;20.50;13.20;;;;;;;12.53;86.10;96951.63;115546;1190;31764;-90
2021/09/28 01:30:28;;;;;;;24.70;12.40;;;;;;;12.36;85.81;96952.64;115564;1197;33585;-91
2021/09/28 01:32:59;;;;;;;19.50;13.00;;;;;;;12.17;86.01;96952.17;115589;1193;26085;-91
2021/09/28 01:35:30;;;;;;;22.40;13.40;;;;;;;12.07;86.42;96955.23;115606;1196;27207;-91
2021/09/28 01:38:00;;;;;;;26.10;13.40;;;;;;;11.98;86.61;96958.30;115601;1197;26316;-89
2021/09/28 01:40:31;;;;;;;18.10;12.90;;;;;;;11.87;86.81;96959.23;115581;1197;25666;-91
2021/09/28 01:43:08;;;;;;;27.40;11.90;;;;;;;11.83;87.22;96959.16;115584;1196;26837;-90
2021/09/28 01:45:41;;;;;;;32.70;12.40;;;;;;;11.77;87.29;96957.14;115622;1197;26247;-90
2021/09/28 01:48:12;;;;;;;23.40;12.60;;;;;;;11.69;87.40;96954.29;115644;1197;28807;-90
2021/09/28 01:50:43;;;;;;;25.30;12.40;;;;;;;11.60;87.67;96956.05;115552;1196;28587;-91
2021/09/28 01:53:12;;;;;;;;;;;;;;;11.53;87.84;96959.80;115694;1197;25170;-91
2021/09/28 01:55:42;;;;;;;24.80;14.00;;;;;;;11.45;88.25;96957.98;115610;1197;28738;-90
2021/09/28 01:58:14;;;;;;;20.20;14.10;;;;;;;11.43;88.67;96956.52;115597;1197;25829;-90
2021/09/28 02:00:46;;;;;;;21.60;14.80;;;;;;;11.41;89.03;96952.23;115656;1190;26037;-90
2021/09/28 02:03:17;;;;;;;24.70;13.60;;;;;;;11.46;89.36;96957.78;115681;1196;26540;-90
2021/09/28 02:05:48;;;;;;;19.00;14.90;;;;;;;11.49;89.52;96960.04;115673;1197;25773;-91
2021/09/28 02:08:18;;;;;;;22.60;15.10;;;;;;;11.55;89.91;96964.58;115683;1196;25233;-91
2021/09/28 02:10:49;;;;;;;23.50;15.00;;;;;;;11.72;90.48;96961.69;115605;1196;27419;-91
2021/09/28 02:13:21;;;;;;;23.70;15.40;;;;;;;11.86;90.58;96965.51;115616;1196;30603;-90
2021/09/28 02:15:52;;;;;;;22.30;16.00;;;;;;;11.96;90.53;96968.09;115683;1196;25257;-92
2021/09/28 02:18:23;;;;;;;27.90;14.00;;;;;;;12.00;90.16;96968.17;115670;1190;30178;-90
2021/09/28 02:20:53;;;;;;;24.40;13.10;;;;;;;11.93;89.68;96968.05;115446;1193;26982;-91
2021/09/28 02:23:24;;;;;;;22.30;13.70;;;;;;;11.81;89.47;96972.87;115557;1190;26484;-91
2021/09/28 02:25:56;;;;;;;24.60;13.40;;;;;;;11.75;89.75;96976.02;115631;1190;26077;-91
2021/09/28 02:28:27;;;;;;;22.80;13.10;;;;;;;11.72;89.91;96977.48;115589;1196;30803;-91
2021/09/28 02:30:56;;;;;;;;;;;;;;;11.69;90.20;96978.08;115645;1196;26695;-91
2021/09/28 02:33:27;;;;;;;18.30;11.80;;;;;;;11.73;90.56;96979.96;115589;1196;26881;-91
2021/09/28 02:35:57;;;;;;;17.80;11.60;;;;;;;11.77;90.85;96976.53;115630;1196;39868;-91
2021/09/28 02:38:28;;;;;;;20.50;11.50;;;;;;;11.82;90.73;96973.14;115605;1190;26073;-90
2021/09/28 02:40:59;;;;;;;17.40;11.20;;;;;;;11.84;90.76;96973.34;115615;1190;31013;-91
2021/09/28 02:43:28;;;;;;;;;;;;;;;11.84;90.46;96972.65;115711;1196;28464;-91
2021/09/28 02:45:59;;;;;;;16.40;10.10;;;;;;;11.78;90.27;96974.63;115649;1197;27439;-90
2021/09/28 02:48:30;;;;;;;17.50;11.40;;;;;;;11.71;90.33;96974.09;115639;1196;29093;-92
2021/09/28 02:51:01;;;;;;;19.40;11.50;;;;;;;11.68;90.40;96973.57;115610;1196;36276;-92
2021/09/28 02:53:32;;;;;;;16.50;10.40;;;;;;;11.62;90.34;96977.05;115576;1197;34346;-90
2021/09/28 02:56:02;;;;;;;15.50;11.30;;;;;;;11.54;90.46;96974.83;115654;1196;28717;-90
2021/09/28 02:58:33;;;;;;;21.20;11.30;;;;;;;11.56;90.91;96973.38;115595;1196;30517;-90
2021/09/28 03:01:04;;;;;;;29.20;10.60;;;;;;;11.54;90.73;96971.80;115572;1196;49099;-90
2021/09/28 03:03:35;;;;;;;30.90;11.40;;;;;;;11.40;90.31;96976.60;115603;1197;27590;-91
2021/09/28 03:06:07;;;;;;;18.60;12.10;;;;;;;11.25;90.54;96978.69;115641;1196;28411;-91
2021/09/28 03:08:37;;;;;;;30.30;10.30;;;;;;;11.19;90.92;96977.82;115618;1197;37741;-90
2021/09/28 03:11:11;;;;;;;23.40;12.30;;;;;;;11.15;90.99;96978.48;115609;1196;28006;-92
2021/09/28 03:13:42;;;;;;;31.10;13.00;;;;;;;11.07;91.15;96976.80;115657;1196;29231;-91
2021/09/28 03:16:12;;;;;;;22.30;11.20;;;;;;;11.05;91.44;96973.69;115667;1196;30838;-91
2021/09/28 03:18:43;;;;;;;20.20;12.20;;;;;;;11.04;91.62;96977.57;115610;1196;27313;-92
2021/09/28 03:21:12;;;;;;;;;;;;;;;11.04;91.76;96979.80;115788;1196;26697;-91
2021/09/28 03:23:43;;;;;;;18.20;11.80;;;;;;;11.04;91.92;96978.69;115681;1196;26549;-92
2021/09/28 03:26:14;;;;;;;17.50;11.40;;;;;;;11.10;92.30;96981.26;115752;1196;25377;-92
2021/09/28 03:28:45;;;;;;;25.70;12.00;;;;;;;11.26;92.72;96980.93;115703;1196;39766;-91
2021/09/28 03:31:15;;;;;;;21.60;10.90;;;;;;;11.35;92.46;96988.20;115682;1190;29452;-92
2021/09/28 03:33:46;;;;;;;20.90;11.00;;;;;;;11.32;92.01;96990.61;115691;1198;27089;-91
2021/09/28 03:36:17;;;;;;;18.80;11.40;;;;;;;11.31;91.84;96989.92;115578;1198;28847;-91
2021/09/28 03:38:46;;;;;;;;;;;;;;;11.32;91.78;96990.08;115598;1198;28420;-91
2021/09/28 03:41:17;;;;;;;19.80;10.50;;;;;;;11.21;91.53;96988.11;115676;1197;36047;-89
2021/09/28 03:43:48;;;;;;;23.50;10.70;;;;;;;11.16;91.64;96986.39;115709;1196;28261;-90
2021/09/28 03:46:18;;;;;;;20.50;10.40;;;;;;;11.16;91.77;96987.08;115649;1196;27223;-90
2021/09/28 03:48:49;;;;;;;27.60;12.40;;;;;;;11.16;91.88;96986.98;115572;1197;29861;-89
2021/09/28 03:51:20;;;;;;;31.90;12.40;;;;;;;11.15;91.77;96985.77;115567;1196;28349;-90
2021/09/28 03:53:52;;;;;;;30.60;11.40;;;;;;;11.13;91.87;96990.60;115593;1196;28287;-89
2021/09/28 03:56:23;;;;;;;29.80;11.40;;;;;;;11.11;91.93;96990.96;115597;1197;29833;-90
2021/09/28 03:58:54;;;;;;;22.40;12.00;;;;;;;11.06;91.76;96991.89;115575;1197;31441;-89
2021/09/28 04:01:24;;;;;;;;;;;;;;;11.03;92.01;96995.41;115616;1193;28591;-89
2021/09/28 04:03:54;;;;;;;23.40;10.70;;;;;;;11.00;92.15;96998.77;115626;1196;29768;-89
2021/09/28 04:06:25;;;;;;;18.80;13.00;;;;;;;11.04;92.44;96996.58;115431;1198;26053;-90
2021/09/28 04:08:56;;;;;;;14.90;10.80;;;;;;;11.14;92.88;96994.35;115555;1184;27475;-89
2021/09/28 04:11:27;;;;;;;14.70;10.70;;;;;;;11.25;92.85;96992.60;115596;1197;27043;-93
2021/09/28 04:13:58;;;;;;;19.10;12.10;;;;;;;11.24;92.53;96995.58;115562;1187;26459;-91
2021/09/28 04:16:30;;;;;;;14.30;9.70;;;;;;;11.29;92.68;96996.94;115554;1198;27673;-90
2021/09/28 04:19:01;;;;;;;14.70;9.20;;;;;;;11.37;92.75;96993.23;115595;1196;27231;-91
2021/09/28 04:21:32;;;;;;;14.90;10.30;;;;;;;11.44;92.77;96993.21;115608;1196;26025;-90
2021/09/28 04:24:03;;;;;;;14.50;9.80;;;;;;;11.54;92.90;96995.02;115619;1197;30327;-90
2021/09/28 04:26:34;;;;;;;14.60;9.90;;;;;;;11.63;92.85;96995.16;115473;1197;39150;-91
2021/09/28 04:29:05;;;;;;;16.10;10.00;;;;;;;11.70;92.79;96998.16;115611;1198;27508;-91
2021/09/28 04:31:36;;;;;;;12.70;8.60;;;;;;;11.71;92.43;96998.64;115416;1198;26565;-90
2021/09/28 04:34:07;;;;;;;11.70;8.50;;;;;;;11.70;92.01;96999.38;115614;1197;28909;-91
2021/09/28 04:36:38;;;;;;;11.00;8.20;;;;;;;11.67;91.87;97001.98;115563;1197;29004;-91
2021/09/28 04:39:09;;;;;;;12.00;8.50;;;;;;;11.70;91.77;97004.54;115660;1197;29596;-91
2021/09/28 04:41:39;;;;;;;14.80;8.50;;;;;;;11.65;91.60;97009.05;117382;1197;31652;-91
2021/09/28 04:44:10;;;;;;;11.10;8.40;;;;;;;11.66;91.66;97010.81;117398;1197;25779;-90
2021/09/28 04:46:41;;;;;;;10.40;7.40;;;;;;;11.64;91.35;97011.52;115738;1197;24539;-91
2021/09/28 04:49:12;;;;;;;10.70;7.40;;;;;;;11.58;91.16;97015.64;115566;1196;29045;-91
2021/09/28 04:51:43;;;;;;;10.70;7.10;;;;;;;11.60;91.33;97015.53;115663;1197;30132;-90
2021/09/28 04:54:15;;;;;;;12.30;8.60;;;;;;;11.57;91.28;97015.59;115644;1189;28443;-90
2021/09/28 04:56:45;;;;;;;14.70;8.40;;;;;;;11.50;91.28;97019.49;115342;1198;52458;-90
2021/09/28 04:59:16;;;;;;;12.10;8.40;;;;;;;11.43;91.38;97021.03;115454;1198;27400;-90
2021/09/28 05:01:47;;;;;;;11.70;8.20;;;;;;;11.48;91.66;97025.09;115671;1174;29896;-90
2021/09/28 05:04:18;;;;;;;11.50;8.80;;;;;;;11.50;91.60;97023.58;115615;1197;30579;-90
2021/09/28 05:06:48;;;;;;;11.60;8.70;;;;;;;11.52;91.54;97023.58;115620;1197;27764;-91
2021/09/28 05:09:20;;;;;;;10.70;7.70;;;;;;;11.55;91.59;97027.98;115598;1197;25053;-86
2021/09/28 05:11:51;;;;;;;10.90;7.70;;;;;;;11.57;91.50;97030.26;115601;1193;28405;-90
2021/09/28 05:14:22;;;;;;;11.50;7.70;;;;;;;11.49;91.23;97033.73;115592;1196;28162;-89
2021/09/28 05:16:53;;;;;;;13.70;8.70;;;;;;;11.45;91.33;97040.14;115579;1196;27477;-90
2021/09/28 05:19:24;;;;;;;14.30;8.30;;;;;;;11.43;91.47;97040.36;115525;1197;33619;-90
2021/09/28 05:21:56;;;;;;;12.20;8.90;;;;;;;11.45;91.81;97044.33;115570;1190;27634;-89
2021/09/28 05:24:26;;;;;;;11.80;8.30;;;;;;;11.57;92.13;97045.23;115651;1196;26613;-90
2021/09/28 05:26:57;;;;;;;13.20;9.00;;;;;;;11.57;91.81;97043.59;115468;1197;29818;-90
2021/09/28 05:29:28;;;;;;;12.40;8.80;;;;;;;11.56;91.85;97045.51;115532;1197;28462;-89
2021/09/28 05:31:59;;;;;;;13.30;7.90;;;;;;;11.55;91.80;97048.38;115568;1197;29066;-90
2021/09/28 05:34:30;;;;;;;16.50;8.70;;;;;;;11.50;91.63;97050.77;115604;1196;28369;-90
2021/09/28 05:37:01;;;;;;;14.80;9.70;;;;;;;11.49;91.84;97050.31;115529;1197;29154;-90
2021/09/28 05:39:32;;;;;;;17.70;13.00;;;;;;;11.50;91.99;97055.98;115571;1196;27728;-90
2021/09/28 05:42:03;;;;;;;11.50;8.50;;;;;;;11.60;92.42;97054.14;115574;1197;34151;-90
2021/09/28 05:44:34;;;;;;;12.60;8.90;;;;;;;11.73;92.66;97054.38;115577;1196;27645;-91
2021/09/28 05:47:05;;;;;;;12.30;8.50;;;;;;;11.79;92.53;97055.22;115631;1194;25655;-92
2021/09/28 05:49:37;;;;;;;13.00;9.40;;;;;;;11.92;92.70;97052.81;115598;1196;27233;-92
2021/09/28 05:52:12;;;;;;;13.40;8.80;;;;;;;12.02;92.61;97057.16;115638;1190;27143;-90
2021/09/28 05:54:48;;;;;;;12.40;9.60;;;;;;;12.02;91.97;97061.69;115485;1196;27970;-91
2021/09/28 05:57:21;;;;;;;14.10;9.00;;;;;;;11.95;91.82;97066.40;115583;1196;88026;-91
2021/09/28 05:59:52;;;;;;;12.40;9.70;;;;;;;11.95;91.87;97067.29;115553;1196;28831;-91
2021/09/28 06:02:22;;;;;;;11.40;8.80;;;;;;;11.98;91.93;97068.20;115582;1196;29243;-91
2021/09/28 06:04:52;;;;;;;;;;;;;;;11.89;91.46;97071.27;115608;1196;30823;-91
2021/09/28 06:07:24;;;;;;;12.20;8.50;;;;;;;11.85;91.63;97072.47;115564;1196;37277;-91
2021/09/28 06:09:55;;;;;;;11.20;8.50;;;;;;;11.76;91.41;97074.72;115609;1196;29750;-91
2021/09/28 06:12:25;;;;;;;11.10;7.40;;;;;;;11.68;91.40;97078.20;115572;1197;26831;-91
2021/09/28 06:14:56;;;;;;;8.60;7.30;;;;;;;11.59;91.42;97080.65;115585;1196;29142;-91
2021/09/28 06:17:25;;;;;;;;;;;;;;;11.48;91.28;97080.26;115602;1190;33430;-91
2021/09/28 06:19:56;;;;;;;11.20;7.70;;;;;;;11.39;91.69;97080.51;115585;1192;28842;-91
2021/09/28 06:22:27;;;;;;;10.90;7.60;;;;;;;11.45;92.23;97082.89;115552;1197;32976;-90
2021/09/28 06:24:58;;;;;;;14.10;9.40;;;;;;;11.53;92.51;97089.48;115530;1197;41706;-91
2021/09/28 06:27:29;;;;;;;10.60;7.60;;;;;;;11.72;93.01;97089.72;115573;1196;26493;-92
2021/09/28 06:30:00;;;;;;;12.50;8.00;;;;;;;11.74;92.38;97087.37;115453;1197;36553;-91
2021/09/28 06:32:30;;;;;;;10.40;7.10;;;;;;;11.71;92.19;97089.52;115543;1197;28391;-91
2021/09/28 06:35:01;;;;;;;11.30;7.20;;;;;;;11.69;92.11;97093.94;115581;1190;30132;-89
2021/09/28 06:37:32;;;;;;;11.10;7.70;;;;;;;11.64;91.86;97097.55;115563;1184;42381;-91
2021/09/28 06:40:03;;;;;;;10.90;7.00;;;;;;;11.54;91.75;97096.81;115576;1197;28506;-90
2021/09/28 06:42:34;;;;;;;11.70;8.10;;;;;;;11.48;91.93;97097.20;115571;1196;35175;-91
2021/09/28 06:45:06;;;;;;;12.90;8.20;;;;;;;11.54;92.47;97101.59;115563;1196;32218;-89
2021/09/28 06:47:37;;;;;;;10.20;6.90;;;;;;;11.58;92.56;97102.33;115558;1197;27846;-89
2021/09/28 06:50:09;;;;;;;13.50;8.40;;;;;;;11.61;92.61;97105.70;115632;1196;26343;-91
2021/09/28 06:52:41;;;;;;;11.40;8.30;;;;;;;11.69;93.02;97109.86;115594;1197;30046;-91
2021/09/28 06:55:12;;;;;;;9.90;6.90;;;;;;;11.84;93.12;97109.51;115565;1197;29371;-91
2021/09/28 06:57:43;;;;;;;10.00;7.40;;;;;;;11.81;92.42;97112.48;115583;1197;28516;-91
2021/09/28 07:00:15;;;;;;;10.40;7.10;;;;;;;11.68;91.94;97111.40;115624;1196;26742;-91
2021/09/28 07:02:46;;;;;;;9.70;6.80;;;;;;;11.56;91.85;97113.73;115605;1197;28821;-90
2021/09/28 07:05:18;;;;;;;10.60;6.40;;;;;;;11.58;92.27;97110.44;115578;1197;32129;-91
2021/09/28 07:07:48;;;;;;;9.90;6.30;;;;;;;11.64;92.27;97111.79;115684;1196;36984;-91
2021/09/28 07:10:19;;;;;;;9.70;6.60;;;;;;;11.53;91.86;97114.81;115670;1191;28016;-91
2021/09/28 07:12:50;;;;;;;11.10;7.50;;;;;;;11.55;92.39;97119.00;115542;1197;43257;-91
2021/09/28 07:15:21;;;;;;;10.00;7.10;;;;;;;11.76;93.24;97117.70;115577;1196;36910;-91
2021/09/28 07:17:53;;;;;;;10.20;7.20;;;;;;;12.02;93.41;97120.03;115573;1190;46083;-91
2021/09/28 07:20:25;;;;;;;9.20;6.00;;;;;;;12.12;92.91;97124.02;115582;1196;28920;-91
2021/09/28 07:22:56;;;;;;;8.70;6.20;;;;;;;12.28;92.77;97122.06;115624;1196;25364;-91
2021/09/28 07:25:26;;;;;;;9.40;6.50;;;;;;;12.35;92.22;97127.59;115596;1190;36281;-91
2021/09/28 07:28:00;;;;;;;9.10;6.20;;;;;;;12.34;91.73;97131.90;115577;1190;29705;-90
2021/09/28 07:30:32;;;;;;;9.00;6.60;;;;;;;12.16;90.97;97133.08;115630;1196;28403;-91
2021/09/28 07:33:04;;;;;;;8.00;6.20;;;;;;;12.01;90.92;97132.48;115544;1196;26799;-90
2021/09/28 07:35:35;;;;;;;12.20;7.40;;;;;;;11.85;90.89;97139.52;115575;1197;29920;-90
2021/09/28 07:38:06;;;;;;;9.50;6.30;;;;;;;11.90;91.53;97138.16;115613;1196;28183;-90
2021/09/28 07:40:37;;;;;;;9.00;6.20;;;;;;;11.94;91.44;97135.90;115554;1197;30454;-91
2021/09/28 07:43:09;;;;;;;9.40;6.10;;;;;;;11.99;91.69;97140.95;115604;1196;30722;-91
2021/09/28 07:45:40;;;;;;;7.10;5.50;;;;;;;12.18;92.27;97146.09;115594;1196;27792;-91
2021/09/28 07:48:12;;;;;;;7.90;5.40;;;;;;;12.30;91.70;97146.73;115599;1196;29715;-90
2021/09/28 07:50:42;;;;;;;8.80;6.50;;;;;;;12.26;91.19;97149.25;115663;1196;27445;-91
2021/09/28 07:53:13;;;;;;;8.60;6.40;;;;;;;12.27;91.22;97149.19;115532;1197;33692;-90
2021/09/28 07:55:44;;;;;;;8.70;6.20;;;;;;;12.34;91.29;97148.77;115667;1196;28193;-91
2021/09/28 07:58:15;;;;;;;8.10;5.70;;;;;;;12.39;91.23;97150.17;115623;1196;28990;-91
2021/09/28 08:00:46;;;;;;;7.00;5.60;;;;;;;12.36;90.57;97154.33;115748;1196;32051;-90
2021/09/28 08:03:17;;;;;;;9.50;5.80;;;;;;;12.22;89.94;97154.85;115708;1196;34203;-92
2021/09/28 08:05:48;;;;;;;9.00;6.60;;;;;;;11.93;89.60;97160.73;115502;1197;30193;-90
2021/09/28 08:08:19;;;;;;;9.00;6.20;;;;;;;11.75;90.08;97162.70;115600;1197;35983;-91
2021/09/28 08:10:50;;;;;;;11.30;6.40;;;;;;;11.63;90.23;97172.40;115635;1197;30295;-88
2021/09/28 08:13:20;;;;;;;9.30;7.50;;;;;;;11.48;90.46;97172.39;115572;1197;40512;-90
2021/09/28 08:15:52;;;;;;;8.70;6.30;;;;;;;11.42;91.09;97172.20;115584;1191;29245;-91
2021/09/28 08:18:22;;;;;;;12.30;6.70;;;;;;;11.43;91.30;97174.59;115547;1197;32212;-91
2021/09/28 08:20:54;;;;;;;12.80;7.80;;;;;;;11.37;91.27;97178.35;115563;1197;29710;-91
2021/09/28 08:23:25;;;;;;;11.40;8.40;;;;;;;11.43;91.78;97180.02;115569;1196;31741;-90
2021/09/28 08:29:08;;;;;;;12.70;7.70;;;;;;;11.45;91.77;97186.26;115556;1196;30148;-92
2021/09/28 08:29:12;;;;;;;11.10;7.90;;;;;;;11.58;92.41;97186.33;115566;1197;27767;-91
2021/09/28 08:31:46;;;;;;;10.40;7.50;;;;;;;11.83;92.66;97190.37;115578;1197;28361;-90
2021/09/28 08:34:19;;;;;;;9.80;7.30;;;;;;;11.88;91.98;97187.27;115658;1196;29328;-91
2021/09/28 08:36:51;;;;;;;12.70;7.10;;;;;;;11.86;91.74;97187.87;115425;1198;28618;-90
2021/09/28 08:39:21;;;;;;;8.90;6.10;;;;;;;11.84;91.63;97185.80;115439;1197;30125;-92
2021/09/28 08:41:52;;;;;;;8.90;6.20;;;;;;;11.74;91.21;97195.95;115400;1197;27664;-91
2021/09/28 08:44:23;;;;;;;9.20;6.60;;;;;;;11.58;91.36;97197.48;115351;1198;28011;-91
2021/09/28 08:46:54;;;;;;;8.90;6.10;;;;;;;11.71;91.94;97202.71;115442;1198;40927;-91
2021/09/28 08:49:25;;;;;;;9.40;7.00;;;;;;;11.59;91.17;97206.02;115469;1197;29598;-91
2021/09/28 08:51:57;;;;;;;11.10;8.00;;;;;;;11.52;91.52;97202.86;115394;1198;32024;-90
2021/09/28 08:54:31;;;;;;;8.00;6.30;;;;;;;11.67;92.16;97208.14;115452;1197;29570;-91
2021/09/28 08:57:02;;;;;;;10.90;7.10;;;;;;;11.74;91.72;97209.02;115510;1197;30358;-91
2021/09/28 08:59:49;;;;;;;8.90;7.40;;;;;;;11.61;91.16;97208.27;115523;1197;25036;-90
2021/09/28 09:02:20;;;;;;;9.40;7.30;;;;;;;11.59;91.46;97212.36;115553;1198;34046;-89
2021/09/28 09:05:05;;;;;;;9.10;6.70;;;;;;;11.67;91.52;97213.86;115448;1197;36792;-89
2021/09/28 09:07:35;;;;;;;10.10;6.90;;;;;;;11.73;91.49;97212.31;115397;1198;30952;-91
2021/09/28 09:10:07;;;;;;;8.50;6.50;;;;;;;11.74;91.22;97215.18;115474;1198;27941;-92
2021/09/28 09:12:40;;;;;;;9.50;6.90;;;;;;;11.60;90.56;97212.63;115374;1197;28162;-91
2021/09/28 09:15:29;;;;;;;10.50;6.90;;;;;;;11.38;90.71;97211.38;115500;1197;26805;-91
2021/09/28 09:18:02;;;;;;;12.50;8.40;;;;;;;11.40;91.36;97206.44;115510;1197;30019;-91
2021/09/28 09:20:40;;;;;;;12.20;9.00;;;;;;;11.41;91.54;97205.44;115493;1198;28489;-91
2021/09/28 09:23:25;;;;;;;11.50;8.50;;;;;;;11.47;91.46;97206.16;115397;1198;28654;-92
2021/09/28 09:26:09;;;;;;;11.80;8.00;;;;;;;11.38;91.05;97206.81;115449;1197;32090;-90
2021/09/28 09:28:43;;;;;;;11.30;8.20;;;;;;;11.31;91.04;97211.61;115651;1197;25476;-91
2021/09/28 09:31:23;;;;;;;12.30;9.20;;;;;;;11.18;91.19;97210.77;115380;1198;26466;-92
2021/09/28 09:33:56;;;;;;;12.60;9.40;;;;;;;11.18;91.79;97209.45;115489;1198;28649;-91
2021/09/28 09:36:30;;;;;;;11.80;9.00;;;;;;;11.42;92.55;97210.05;115406;1198;28975;-91
2021/09/28 09:39:03;;;;;;;13.90;10.20;;;;;;;11.57;92.05;97210.77;115495;1197;27650;-90
2021/09/28 09:41:35;;;;;;;13.10;9.90;;;;;;;11.53;91.35;97214.38;115432;1198;28814;-92
2021/09/28 09:44:08;;;;;;;12.60;9.60;;;;;;;11.52;91.19;97219.42;116100;1197;31988;-92
2021/09/28 09:46:45;;;;;;;12.60;9.90;;;;;;;11.50;91.11;97219.90;117036;1198;90949;-92
2021/09/28 09:49:21;;;;;;;11.90;8.30;;;;;;;11.57;91.20;97222.23;116303;1197;25132;-93
2021/09/28 09:51:53;;;;;;;12.50;9.60;;;;;;;11.57;90.75;97225.69;115378;1194;40652;-92
2021/09/28 09:54:35;;;;;;;13.80;9.40;;;;;;;11.33;90.31;97230.35;115434;1198;38708;-90
2021/09/28 09:57:08;;;;;;;11.80;9.40;;;;;;;11.09;90.46;97230.84;115561;1192;26702;-91
2021/09/28 09:59:41;;;;;;;14.40;10.50;;;;;;;10.92;90.77;97234.33;115437;1197;29069;-91
2021/09/28 10:02:12;;;;;;;15.80;11.50;;;;;;;10.73;91.26;97234.11;115396;1197;44556;-90
2021/09/28 10:04:43;;;;;;;12.50;9.70;;;;;;;10.77;92.08;97237.61;115431;1198;26838;-91
2021/09/28 10:07:15;;;;;;;13.80;11.00;;;;;;;10.92;92.18;97237.73;115450;1197;27775;-92
2021/09/28 10:09:49;;;;;;;17.00;12.50;;;;;;;10.98;92.27;97235.67;115510;1197;27673;-90
2021/09/28 10:12:21;;;;;;;16.00;11.30;;;;;;;11.19;92.61;97235.39;115456;1197;28105;-90
2021/09/28 10:15:05;;;;;;;16.40;11.30;;;;;;;11.27;92.17;97233.86;115367;1197;44851;-90
2021/09/28 10:17:46;;;;;;;17.90;12.40;;;;;;;11.47;92.45;97239.40;115423;1192;29964;-91
2021/09/28 10:20:32;;;;;;;15.10;12.50;;;;;;;11.70;92.54;97244.04;115523;1197;40498;-90
2021/09/28 10:23:21;;;;;;;16.70;11.40;;;;;;;11.82;91.86;97244.58;115459;1198;26674;-90
2021/09/28 10:25:51;;;;;;;15.30;12.20;;;;;;;11.88;91.28;97241.89;115462;1197;25502;-90
2021/09/28 10:28:42;;;;;;;12.70;10.30;;;;;;;11.96;91.41;97240.98;115443;1198;46686;-91
2021/09/28 10:31:34;;;;;;;14.50;10.80;;;;;;;12.25;91.81;97235.33;115388;1197;32844;-90
2021/09/28 10:34:05;;;;;;;15.30;11.40;;;;;;;12.48;91.27;97237.21;115428;1197;29045;-90
2021/09/28 10:36:53;;;;;;;15.60;11.40;;;;;;;12.46;90.25;97237.66;115464;1198;28466;-91
2021/09/28 10:39:40;;;;;;;17.70;12.20;;;;;;;12.55;90.16;97237.93;115385;1191;28267;-91
2021/09/28 10:42:11;;;;;;;16.90;12.30;;;;;;;12.62;89.95;97239.27;115383;1197;37727;-91
2021/09/28 10:44:42;;;;;;;16.50;12.20;;;;;;;12.65;89.74;97238.45;115371;1198;27083;-90
2021/09/28 10:47:53;;;;;;;15.80;11.80;;;;;;;12.74;89.78;97241.43;115412;1197;29077;-91
2021/09/28 10:50:33;;;;;;;17.10;11.70;;;;;;;12.81;89.21;97241.23;115459;1197;44664;-91
2021/09/28 10:53:06;;;;;;;17.10;12.30;;;;;;;12.72;88.47;97239.90;115591;1197;29924;-92
2021/09/28 10:55:57;;;;;;;19.70;14.20;;;;;;;12.65;88.68;97245.27;115553;1198;29349;-92
2021/09/28 10:58:27;;;;;;;;;;;;;;;12.76;89.01;97247.95;115662;1197;32708;-92
2021/09/28 11:01:11;;;;;;;17.70;13.10;;;;;;;12.89;89.16;97246.17;115509;1197;29356;-91
2021/09/28 11:04:06;;;;;;;17.90;13.40;;;;;;;13.03;89.01;97252.04;115425;1191;27871;-92
2021/09/28 11:07:08;;;;;;;20.40;14.40;;;;;;;13.03;88.03;97252.02;115423;1184;38378;-93
2021/09/28 11:09:51;;;;;;;18.60;12.50;;;;;;;12.91;87.87;97244.77;115493;1197;55273;-91
2021/09/28 11:12:26;;;;;;;19.70;13.30;;;;;;;12.92;87.81;97246.67;115546;1191;26158;-91
2021/09/28 11:15:04;;;;;;;19.40;14.60;;;;;;;12.96;87.84;97245.86;115494;1197;29226;-90
2021/09/28 11:17:36;;;;;;;21.20;14.50;;;;;;;12.92;87.54;97248.80;115469;1197;28285;-90
2021/09/28 11:20:21;;;;;;;21.30;14.60;;;;;;;12.93;87.66;97251.99;115450;1197;29365;-90
2021/09/28 11:22:58;;;;;;;21.40;14.60;;;;;;;12.95;87.62;97253.27;115442;1198;30978;-91
2021/09/28 11:25:32;;;;;;;17.20;12.40;;;;;;;13.02;87.82;97255.23;115445;1192;30823;-90
2021/09/28 11:28:05;;;;;;;17.50;12.60;;;;;;;13.11;87.61;97250.92;115447;1197;30682;-91
2021/09/28 11:30:38;;;;;;;19.80;14.10;;;;;;;13.02;86.90;97252.04;115407;1198;30417;-90
2021/09/28 11:33:11;;;;;;;19.20;14.10;;;;;;;12.88;86.79;97248.36;115415;1191;26831;-90
2021/09/28 11:35:55;;;;;;;19.90;14.50;;;;;;;12.89;87.26;97245.64;115408;1198;27203;-90
2021/09/28 11:38:31;;;;;;;24.60;15.80;;;;;;;12.94;87.27;97246.72;115477;1197;29756;-91
2021/09/28 11:41:04;;;;;;;20.50;15.00;;;;;;;12.90;86.92;97249.09;115545;1197;39238;-92
2021/09/28 11:43:36;;;;;;;23.00;15.00;;;;;;;12.89;86.83;97249.64;115449;1197;32009;-91